EMHI - Aviation weather information

Aviation weather information 2024-04-18 19:49 UTC

Weather forecasts
TAF (FTEO31)
FTEO31 EETN 181700
TAF EETN 181730Z 1818/1918 06012KT 9999 SCT030 PROB40 TEMPO
     1905/1909 BKN010=
TAF (FTEO33)
FTEO33 EEEI 181700
TAF EEEI 181730Z NIL=
TAF (FCEO32)
FCEO32 EETN 181400 AAA
TAF AMD EEKE 181800Z 1815/1821 CNL=
Weather observations (METAR/SPECI)
METAR EETN 181920Z 06005KT 030V090 CAVOK M01/M06 Q1013 NOSIG=
METAR EEEI 181850Z AUTO 06004KT CAVOK M01/M05 Q1014=
METAR EETU 181920Z 03008KT 360V060 9999 BKN031 01/M04 Q1011=
METAR EEPU 181920Z AUTO 04009KT 9999 NCD 00/M04 Q1012=
METAR EEKE 181950Z AUTO 01007KT 9999NDV NCD 00/M02 Q1012=
METAR EEKA 181920Z NIL=